Time;durP1;ratioP1;P1;durP2;ratioP2;P2;SDS_P1;SDS_P2;PMS_P1;PMS_P2;Temp;Humidity;BMP_temperature;BMP_pressure;BME280_temperature;BME280_humidity;BME280_pressure;Samples;Min_cycle;Max_cycle;Signal;HPM_P1;HPM_P2
2021/10/12 00:01:14;;;;;;;;;;;;;;;;;;5035171;28;19925;-61
2021/10/12 00:03:39;;;;;;;;;;;;;;;;;;5035867;28;19920;-61
2021/10/12 00:06:05;;;;;;;;;;;;;;;;;;5032125;28;20007;-62
2021/10/12 00:08:33;;;;;;;;;;;;;;;;;;5034542;28;19927;-62
2021/10/12 00:10:59;;;;;;;;;;;;;;;;;;5035350;28;19986;-61
2021/10/12 00:13:24;;;;;;;;;;;;;;;;;;5032150;28;20403;-61
2021/10/12 00:15:49;;;;;;;;;;;;;;;;;;5038645;28;20005;-61
2021/10/12 00:18:15;;;;;;;;;;;;;;;;;;5035107;28;20295;-61
2021/10/12 00:20:40;;;;;;;;;;;;;;;;;;5035831;28;19921;-61
2021/10/12 00:23:06;;;;;;;;;;;;;;;;;;5035781;28;19917;-61
2021/10/12 00:25:32;;;;;;;;;;;;;;;;;;5036681;28;19916;-62
2021/10/12 00:27:57;;;;;;;;;;;;;;;;;;5032971;28;20380;-61
2021/10/12 00:30:22;;;;;;;;;;;;;;;;;;5029999;28;19928;-61
2021/10/12 00:32:48;;;;;;;;;;;;;;;;;;5039932;28;19944;-61
2021/10/12 00:35:13;;;;;;;;;;;;;;;;;;5039115;28;19920;-61
2021/10/12 00:37:39;;;;;;;;;;;;;;;;;;5033782;28;20375;-61
2021/10/12 00:40:05;;;;;;;;;;;;;;;;;;5035490;28;20264;-61
2021/10/12 00:42:30;;;;;;;;;;;;;;;;;;5034985;28;19948;-62
2021/10/12 00:44:56;;;;;;;;;;;;;;;;;;5033413;28;19976;-61
2021/10/12 00:47:22;;;;;;;;;;;;;;;;;;5037817;28;19967;-62
2021/10/12 00:49:47;;;;;;;;;;;;;;;;;;5042625;28;19921;-62
2021/10/12 00:52:13;;;;;;;;;;;;;;;;;;5039913;28;19976;-61
2021/10/12 00:54:38;;;;;;;;;;;;;;;;;;5033514;28;19925;-62
2021/10/12 00:57:05;;;;;;;;;;;;;;;;;;5041499;28;20004;-61
2021/10/12 00:59:31;;;;;;;;;;;;;;;;;;5029219;28;20703;-61
2021/10/12 01:01:56;;;;;;;;;;;;;;;;;;5035667;28;20012;-61
2021/10/12 01:04:22;;;;;;;;;;;;;;;;;;5039180;28;20354;-61
2021/10/12 01:06:47;;;;;;;;;;;;;;;;;;5033565;28;20010;-61
2021/10/12 01:09:13;;;;;;;;;;;;;;;;;;5037675;28;20387;-61
2021/10/12 01:11:38;;;;;;;;;;;;;;;;;;5036036;28;20445;-61
2021/10/12 01:14:04;;;;;;;;;;;;;;;;;;5038333;28;20295;-61
2021/10/12 01:16:30;;;;;;;;;;;;;;;;;;5039146;28;19921;-61
2021/10/12 01:18:59;;;;;;;;;;;;;;;;;;5035411;28;19966;-60
2021/10/12 01:21:26;;;;;;;;;;;;;;;;;;5039329;28;19916;-60
2021/10/12 01:23:51;;;;;;;;;;;;;;;;;;5036902;28;19917;-61
2021/10/12 01:26:16;;;;;;;;;;;;;;;;;;5036024;28;19924;-60
2021/10/12 01:28:42;;;;;;;;;;;;;;;;;;5034170;28;20292;-61
2021/10/12 01:31:16;;;;;;;;;;;;;;;;;;5037199;28;19925;-61
2021/10/12 01:33:42;;;;;;;;;;;;;;;;;;5034857;28;19919;-61
2021/10/12 01:36:07;;;;;;;;;;;;;;;;;;5033081;28;19925;-61
2021/10/12 01:38:33;;;;;;;;;;;;;;;;;;5036624;28;19928;-61
2021/10/12 01:40:58;;;;;;;;;;;;;;;;;;5032961;28;20227;-61
2021/10/12 01:43:24;;;;;;;;;;;;;;;;;;5041795;28;19927;-62
2021/10/12 01:45:49;;;;;;;;;;;;;;;;;;5037671;28;19917;-62
2021/10/12 01:48:15;;;;;;;;;;;;;;;;;;5035454;28;19928;-62
2021/10/12 01:50:40;;;;;;;;;;;;;;;;;;5032759;28;19925;-61
2021/10/12 01:53:05;;;;;;;;;;;;;;;;;;5034142;28;19924;-62
2021/10/12 01:55:31;;;;;;;;;;;;;;;;;;5032921;28;19999;-62
2021/10/12 01:57:56;;;;;;;;;;;;;;;;;;5035139;28;19921;-62
2021/10/12 02:00:22;;;;;;;;;;;;;;;;;;5033712;28;20039;-61
2021/10/12 02:02:47;;;;;;;;;;;;;;;;;;5033685;28;20013;-61
2021/10/12 02:05:13;;;;;;;;;;;;;;;;;;5033770;28;20400;-62
2021/10/12 02:07:38;;;;;;;;;;;;;;;;;;5031927;28;20277;-62
2021/10/12 02:10:04;;;;;;;;;;;;;;;;;;5032832;28;20402;-61
2021/10/12 02:12:30;;;;;;;;;;;;;;;;;;5035011;28;19931;-61
2021/10/12 02:14:56;;;;;;;;;;;;;;;;;;5038580;28;19917;-61
2021/10/12 02:17:21;;;;;;;;;;;;;;;;;;5036571;28;19928;-62
2021/10/12 02:19:47;;;;;;;;;;;;;;;;;;5034695;28;20011;-61
2021/10/12 02:22:12;;;;;;;;;;;;;;;;;;5036649;28;19939;-61
2021/10/12 02:24:38;;;;;;;;;;;;;;;;;;5039577;28;19921;-62
2021/10/12 02:27:03;;;;;;;;;;;;;;;;;;5035944;28;20114;-62
2021/10/12 02:29:29;;;;;;;;;;;;;;;;;;5038613;28;19921;-62
2021/10/12 02:31:54;;;;;;;;;;;;;;;;;;5036347;28;20350;-62
2021/10/12 02:34:20;;;;;;;;;;;;;;;;;;5035706;28;20646;-61
2021/10/12 02:36:45;;;;;;;;;;;;;;;;;;5036400;28;19917;-61
2021/10/12 02:39:11;;;;;;;;;;;;;;;;;;5035883;28;20304;-62
2021/10/12 02:41:36;;;;;;;;;;;;;;;;;;5036836;28;20281;-62
2021/10/12 02:44:01;;;;;;;;;;;;;;;;;;5035664;28;20296;-62
2021/10/12 02:46:27;;;;;;;;;;;;;;;;;;5032898;28;20460;-62
2021/10/12 02:48:52;;;;;;;;;;;;;;;;;;5034364;28;19925;-61
2021/10/12 02:51:17;;;;;;;;;;;;;;;;;;5033943;28;19924;-62
2021/10/12 02:53:43;;;;;;;;;;;;;;;;;;5033774;28;19920;-61
2021/10/12 02:56:08;;;;;;;;;;;;;;;;;;5038453;28;19916;-61
2021/10/12 02:58:33;;;;;;;;;;;;;;;;;;5034598;28;19916;-62
2021/10/12 03:00:59;;;;;;;;;;;;;;;;;;5040351;28;20453;-61
2021/10/12 03:03:24;;;;;;;;;;;;;;;;;;5037523;28;20411;-62
2021/10/12 03:05:50;;;;;;;;;;;;;;;;;;5033613;28;19940;-62
2021/10/12 03:08:15;;;;;;;;;;;;;;;;;;5031461;28;20012;-62
2021/10/12 03:10:40;;;;;;;;;;;;;;;;;;5035298;28;19967;-61
2021/10/12 03:13:06;;;;;;;;;;;;;;;;;;5039054;28;19935;-62
2021/10/12 03:15:31;;;;;;;;;;;;;;;;;;5035311;28;20007;-62
2021/10/12 03:17:57;;;;;;;;;;;;;;;;;;5032698;28;20427;-61
2021/10/12 03:20:23;;;;;;;;;;;;;;;;;;5037841;28;20276;-62
2021/10/12 03:22:48;;;;;;;;;;;;;;;;;;5034601;28;20019;-62
2021/10/12 03:25:13;;;;;;;;;;;;;;;;;;5032728;28;19927;-62
2021/10/12 03:27:39;;;;;;;;;;;;;;;;;;5032926;28;19921;-61
2021/10/12 03:30:05;;;;;;;;;;;;;;;;;;5034386;28;20472;-62
2021/10/12 03:32:30;;;;;;;;;;;;;;;;;;5034777;28;20027;-62
2021/10/12 03:34:56;;;;;;;;;;;;;;;;;;5030673;28;19999;-62
2021/10/12 03:37:21;;;;;;;;;;;;;;;;;;5031396;28;19917;-61
2021/10/12 03:39:46;;;;;;;;;;;;;;;;;;5028798;28;19920;-61
2021/10/12 03:42:12;;;;;;;;;;;;;;;;;;5037902;28;19974;-62
2021/10/12 03:44:37;;;;;;;;;;;;;;;;;;5031297;28;19964;-61
2021/10/12 03:47:02;;;;;;;;;;;;;;;;;;5039673;28;19926;-61
2021/10/12 03:49:28;;;;;;;;;;;;;;;;;;5036785;28;19916;-62
2021/10/12 03:51:53;;;;;;;;;;;;;;;;;;5036878;28;19933;-62
2021/10/12 03:54:18;;;;;;;;;;;;;;;;;;5037264;28;19924;-61
2021/10/12 03:56:44;;;;;;;;;;;;;;;;;;5034808;28;19923;-61
2021/10/12 03:59:09;;;;;;;;;;;;;;;;;;5035430;28;20019;-61
2021/10/12 04:01:34;;;;;;;;;;;;;;;;;;5038478;28;19960;-61
2021/10/12 04:04:00;;;;;;;;;;;;;;;;;;5036524;28;20280;-61
2021/10/12 04:06:26;;;;;;;;;;;;;;;;;;5033270;28;19916;-62
2021/10/12 04:08:51;;;;;;;;;;;;;;;;;;5038731;28;20109;-63
2021/10/12 04:11:17;;;;;;;;;;;;;;;;;;5042352;28;19972;-62
2021/10/12 04:13:42;;;;;;;;;;;;;;;;;;5035829;28;19923;-62
2021/10/12 04:16:07;;;;;;;;;;;;;;;;;;5042927;28;19917;-61
2021/10/12 04:18:32;;;;;;;;;;;;;;;;;;5042160;28;19932;-62
2021/10/12 04:20:58;;;;;;;;;;;;;;;;;;5041448;28;20415;-62
2021/10/12 04:23:24;;;;;;;;;;;;;;;;;;5042412;28;20015;-62
2021/10/12 04:25:49;;;;;;;;;;;;;;;;;;5038304;28;19916;-62
2021/10/12 04:28:15;;;;;;;;;;;;;;;;;;5042981;28;19943;-62
2021/10/12 04:30:42;;;;;;;;;;;;;;;;;;5032208;28;19936;-62
2021/10/12 04:33:07;;;;;;;;;;;;;;;;;;5039959;28;19921;-62
2021/10/12 04:35:33;;;;;;;;;;;;;;;;;;5041180;28;19924;-62
2021/10/12 04:37:59;;;;;;;;;;;;;;;;;;5041654;28;20277;-62
2021/10/12 04:40:25;;;;;;;;;;;;;;;;;;5032218;28;19927;-62
2021/10/12 04:42:51;;;;;;;;;;;;;;;;;;5037839;28;19916;-62
2021/10/12 04:45:16;;;;;;;;;;;;;;;;;;5040935;28;19966;-61
2021/10/12 04:47:42;;;;;;;;;;;;;;;;;;5037381;28;19924;-62
2021/10/12 04:50:07;;;;;;;;;;;;;;;;;;5043613;28;20344;-62
2021/10/12 04:52:33;;;;;;;;;;;;;;;;;;5039270;28;19924;-62
2021/10/12 04:54:58;;;;;;;;;;;;;;;;;;5037053;28;20348;-62
2021/10/12 04:57:23;;;;;;;;;;;;;;;;;;5058484;28;19921;-62
2021/10/12 04:59:49;;;;;;;;;;;;;;;;;;5035473;28;19923;-63
2021/10/12 05:02:14;;;;;;;;;;;;;;;;;;5038303;28;19925;-62
2021/10/12 05:04:39;;;;;;;;;;;;;;;;;;5033819;28;19913;-61
2021/10/12 05:07:05;;;;;;;;;;;;;;;;;;5035038;28;19955;-61
2021/10/12 05:09:30;;;;;;;;;;;;;;;;;;5038472;28;19921;-61
2021/10/12 05:11:55;;;;;;;;;;;;;;;;;;5040759;28;19921;-61
2021/10/12 05:14:21;;;;;;;;;;;;;;;;;;5040204;28;20402;-62
2021/10/12 05:16:49;;;;;;;;;;;;;;;;;;5034812;28;20494;-62
2021/10/12 05:19:14;;;;;;;;;;;;;;;;;;5036686;28;20350;-61
2021/10/12 05:21:40;;;;;;;;;;;;;;;;;;5039250;28;19917;-61
2021/10/12 05:24:06;;;;;;;;;;;;;;;;;;5037080;28;20295;-61
2021/10/12 05:26:31;;;;;;;;;;;;;;;;;;5052888;28;19924;-62
2021/10/12 05:28:57;;;;;;;;;;;;;;;;;;5037687;28;19920;-60
2021/10/12 05:31:22;;;;;;;;;;;;;;;;;;5035977;28;19920;-61
2021/10/12 05:33:48;;;;;;;;;;;;;;;;;;5037657;28;20376;-61
2021/10/12 05:36:14;;;;;;;;;;;;;;;;;;5036753;28;20027;-61
2021/10/12 05:38:39;;;;;;;;;;;;;;;;;;5032954;28;19917;-60
2021/10/12 05:41:05;;;;;;;;;;;;;;;;;;5037700;28;20385;-61
2021/10/12 05:43:30;;;;;;;;;;;;;;;;;;5035795;28;19924;-61
2021/10/12 05:45:55;;;;;;;;;;;;;;;;;;5039103;28;20410;-61
2021/10/12 05:48:21;;;;;;;;;;;;;;;;;;5037436;28;20240;-61
2021/10/12 05:50:47;;;;;;;;;;;;;;;;;;5042599;28;19956;-60
2021/10/12 05:53:26;;;;;;;;;;;;;;;;;;5034738;28;20403;-61
2021/10/12 05:55:56;;;;;;;;;;;;;;;;;;5037377;28;19944;-61
2021/10/12 06:01:00;;;;;;;;;;;;;;;;;;5033687;28;19923;-61
2021/10/12 06:03:25;;;;;;;;;;;;;;;;;;5033119;28;19921;-62
2021/10/12 06:05:50;;;;;;;;;;;;;;;;;;5031297;28;19931;-62
2021/10/12 06:08:16;;;;;;;;;;;;;;;;;;5034766;28;19928;-61
2021/10/12 06:10:41;;;;;;;;;;;;;;;;;;5033155;28;19924;-61
2021/10/12 06:13:11;;;;;;;;;;;;;;;;;;5036659;28;19947;-60
2021/10/12 06:15:37;;;;;;;;;;;;;;;;;;5031701;28;19931;-61
2021/10/12 06:18:02;;;;;;;;;;;;;;;;;;5034607;28;20050;-61
2021/10/12 06:20:28;;;;;;;;;;;;;;;;;;5034608;28;20403;-61
2021/10/12 06:22:53;;;;;;;;;;;;;;;;;;5038963;28;20361;-61
2021/10/12 06:25:18;;;;;;;;;;;;;;;;;;5034984;28;19917;-62
2021/10/12 06:27:44;;;;;;;;;;;;;;;;;;5040975;28;19917;-61
2021/10/12 06:30:10;;;;;;;;;;;;;;;;;;5035627;28;19923;-61
2021/10/12 06:32:35;;;;;;;;;;;;;;;;;;5040754;28;19917;-61
2021/10/12 06:35:01;;;;;;;;;;;;;;;;;;5038691;28;20430;-60
2021/10/12 06:37:26;;;;;;;;;;;;;;;;;;5030543;28;19948;-61
2021/10/12 06:39:52;;;;;;;;;;;;;;;;;;5031483;28;19913;-61
2021/10/12 06:42:17;;;;;;;;;;;;;;;;;;5030842;28;19951;-61
2021/10/12 06:44:42;;;;;;;;;;;;;;;;;;5038882;28;20387;-60
2021/10/12 06:47:08;;;;;;;;;;;;;;;;;;5038463;28;20012;-61
2021/10/12 06:49:33;;;;;;;;;;;;;;;;;;5030222;28;20368;-61
2021/10/12 06:51:58;;;;;;;;;;;;;;;;;;5041875;28;19925;-61
2021/10/12 06:54:24;;;;;;;;;;;;;;;;;;5036066;28;19917;-61
2021/10/12 06:56:49;;;;;;;;;;;;;;;;;;5037998;28;19916;-61
2021/10/12 06:59:14;;;;;;;;;;;;;;;;;;5038501;28;19936;-60
2021/10/12 07:01:40;;;;;;;;;;;;;;;;;;5039429;28;19966;-61
2021/10/12 07:04:05;;;;;;;;;;;;;;;;;;5038778;28;19917;-61
2021/10/12 07:06:31;;;;;;;;;;;;;;;;;;5037616;28;19998;-61
2021/10/12 07:08:56;;;;;;;;;;;;;;;;;;5035997;28;19921;-60
2021/10/12 07:11:21;;;;;;;;;;;;;;;;;;5032251;28;19917;-60
2021/10/12 07:13:48;;;;;;;;;;;;;;;;;;5030845;28;20739;-62
2021/10/12 07:16:14;;;;;;;;;;;;;;;;;;5032953;28;19924;-62
2021/10/12 07:18:39;;;;;;;;;;;;;;;;;;5031849;28;20044;-61
2021/10/12 07:21:05;;;;;;;;;;;;;;;;;;5034734;28;20004;-62
2021/10/12 07:23:30;;;;;;;;;;;;;;;;;;5036518;28;19917;-60
2021/10/12 07:25:55;;;;;;;;;;;;;;;;;;5037643;28;19936;-58
2021/10/12 07:28:21;;;;;;;;;;;;;;;;;;5030468;28;19917;-61
2021/10/12 07:30:46;;;;;;;;;;;;;;;;;;5034223;28;19921;-60
2021/10/12 07:33:11;;;;;;;;;;;;;;;;;;5032916;28;19917;-61
2021/10/12 07:35:43;;;;;;;;;;;;;;;;;;5035980;28;19913;-62
2021/10/12 07:38:09;;;;;;;;;;;;;;;;;;5041151;28;20015;-62
2021/10/12 07:40:35;;;;;;;;;;;;;;;;;;5034394;28;20007;-61
2021/10/12 07:43:00;;;;;;;;;;;;;;;;;;5036887;28;19917;-63
2021/10/12 07:45:26;;;;;;;;;;;;;;;;;;5036344;28;19913;-61
2021/10/12 07:47:51;;;;;;;;;;;;;;;;;;5037488;28;20017;-61
2021/10/12 07:50:17;;;;;;;;;;;;;;;;;;5036527;28;19917;-61
2021/10/12 07:52:44;;;;;;;;;;;;;;;;;;5037709;28;19924;-61
2021/10/12 07:57:34;;;;;;;;;;;;;;;;;;5037787;28;20400;-61
2021/10/12 08:00:00;;;;;;;;;;;;;;;;;;5040408;28;19948;-61
2021/10/12 08:02:25;;;;;;;;;;;;;;;;;;5041897;28;19923;-61
2021/10/12 08:04:51;;;;;;;;;;;;;;;;;;5044912;28;19921;-61
2021/10/12 08:07:16;;;;;;;;;;;;;;;;;;5039003;28;19917;-61
2021/10/12 08:09:41;;;;;;;;;;;;;;;;;;5039801;28;20053;-61
2021/10/12 08:12:07;;;;;;;;;;;;;;;;;;5044316;28;20291;-64
2021/10/12 08:14:37;;;;;;;;;;;;;;;;;;5033350;28;19962;-61
2021/10/12 08:17:03;;;;;;;;;;;;;;;;;;5040208;28;20003;-60
2021/10/12 08:19:28;;;;;;;;;;;;;;;;;;5043248;28;19999;-61
2021/10/12 08:21:54;;;;;;;;;;;;;;;;;;5038020;28;19920;-61
2021/10/12 08:24:20;;;;;;;;;;;;;;;;;;5039281;28;19920;-61
2021/10/12 08:26:46;;;;;;;;;;;;;;;;;;5036719;28;19921;-61
2021/10/12 08:29:12;;;;;;;;;;;;;;;;;;5040881;28;20003;-61
2021/10/12 08:31:37;;;;;;;;;;;;;;;;;;5036904;28;20295;-61
2021/10/12 08:34:02;;;;;;;;;;;;;;;;;;5037683;28;19928;-61
2021/10/12 08:36:28;;;;;;;;;;;;;;;;;;5056531;28;19927;-61
2021/10/12 08:38:56;;;;;;;;;;;;;;;;;;5037753;28;20175;-61
2021/10/12 08:41:25;;;;;;;;;;;;;;;;;;5038330;28;20299;-60
2021/10/12 08:43:54;;;;;;;;;;;;;;;;;;5033595;28;19952;-60
2021/10/12 08:46:23;;;;;;;;;;;;;;;;;;5048350;28;19920;-60
2021/10/12 08:48:48;;;;;;;;;;;;;;;;;;5042217;28;19944;-60
2021/10/12 08:51:13;;;;;;;;;;;;;;;;;;5034584;28;20379;-60
2021/10/12 08:53:39;;;;;;;;;;;;;;;;;;5037178;28;19924;-60
2021/10/12 08:56:06;;;;;;;;;;;;;;;;;;5037007;28;19940;-60
2021/10/12 08:58:31;;;;;;;;;;;;;;;;;;5040247;28;19921;-60
2021/10/12 09:01:10;;;;;;;;;;;;;;;;;;5038887;28;19936;-60
2021/10/12 09:06:26;;;;;;;;;;;;;;;;;;5037800;28;19916;-60
2021/10/12 09:08:56;;;;;;;;;;;;;;;;;;5043079;28;20021;-60
2021/10/12 09:11:22;;;;;;;;;;;;;;;;;;5031838;28;19921;-60
2021/10/12 09:13:48;;;;;;;;;;;;;;;;;;5038847;28;19924;-60
2021/10/12 09:16:15;;;;;;;;;;;;;;;;;;5035048;28;20019;-60
2021/10/12 09:18:52;;;;;;;;;;;;;;;;;;5036219;28;19920;-61
2021/10/12 09:21:20;;;;;;;;;;;;;;;;;;5039341;28;20078;-60
2021/10/12 09:23:46;;;;;;;;;;;;;;;;;;5040185;28;19982;-60
2021/10/12 09:26:24;;;;;;;;;;;;;;;;;;5044067;28;20407;-59
2021/10/12 09:28:50;;;;;;;;;;;;;;;;;;5036208;28;20324;-59
2021/10/12 09:31:16;;;;;;;;;;;;;;;;;;5036858;28;19917;-60
2021/10/12 09:33:48;;;;;;;;;;;;;;;;;;5035758;28;19974;-59
2021/10/12 09:36:34;;;;;;;;;;;;;;;;;;5034971;28;19913;-59
2021/10/12 09:38:59;;;;;;;;;;;;;;;;;;5030727;28;19923;-59
2021/10/12 09:41:26;;;;;;;;;;;;;;;;;;5040953;28;19909;-60
2021/10/12 09:43:52;;;;;;;;;;;;;;;;;;5040353;28;19913;-60
2021/10/12 09:46:21;;;;;;;;;;;;;;;;;;5040959;28;19912;-59
2021/10/12 09:48:46;;;;;;;;;;;;;;;;;;5037062;28;19916;-59
2021/10/12 09:51:13;;;;;;;;;;;;;;;;;;5033795;28;19928;-60
2021/10/12 09:53:39;;;;;;;;;;;;;;;;;;5039956;28;19917;-59
2021/10/12 09:56:05;;;;;;;;;;;;;;;;;;5036418;28;19928;-59
2021/10/12 09:58:34;;;;;;;;;;;;;;;;;;5034305;28;19996;-59
2021/10/12 10:01:00;;;;;;;;;;;;;;;;;;5035991;28;19925;-59
2021/10/12 10:03:29;;;;;;;;;;;;;;;;;;5038757;28;19966;-60
2021/10/12 10:05:57;;;;;;;;;;;;;;;;;;5035429;28;20300;-60
2021/10/12 10:08:23;;;;;;;;;;;;;;;;;;5044036;28;19943;-61
2021/10/12 10:10:48;;;;;;;;;;;;;;;;;;5040498;28;20689;-58
2021/10/12 10:13:18;;;;;;;;;;;;;;;;;;5043797;28;19924;-60
2021/10/12 10:15:44;;;;;;;;;;;;;;;;;;5035785;28;20391;-60
2021/10/12 10:18:10;;;;;;;;;;;;;;;;;;5038125;28;20329;-60
2021/10/12 10:20:35;;;;;;;;;;;;;;;;;;5042252;28;19909;-60
2021/10/12 10:23:01;;;;;;;;;;;;;;;;;;5041287;28;19928;-60
2021/10/12 10:25:38;;;;;;;;;;;;;;;;;;5033481;28;19917;-61
2021/10/12 10:28:16;;;;;;;;;;;;;;;;;;5037547;28;19920;-61
2021/10/12 10:30:45;;;;;;;;;;;;;;;;;;5037823;28;20399;-60
2021/10/12 10:33:24;;;;;;;;;;;;;;;;;;5042605;28;19925;-60
2021/10/12 10:35:55;;;;;;;;;;;;;;;;;;5031060;28;19923;-61
2021/10/12 10:38:20;;;;;;;;;;;;;;;;;;5036263;28;19916;-60
2021/10/12 10:40:46;;;;;;;;;;;;;;;;;;5040307;28;20383;-61
2021/10/12 10:43:12;;;;;;;;;;;;;;;;;;5038850;28;20379;-60
2021/10/12 10:45:42;;;;;;;;;;;;;;;;;;5037573;28;19916;-60
2021/10/12 10:48:09;;;;;;;;;;;;;;;;;;5038569;28;19947;-60
2021/10/12 10:50:34;;;;;;;;;;;;;;;;;;5033295;28;20390;-60
2021/10/12 10:53:01;;;;;;;;;;;;;;;;;;5036057;28;19925;-60
2021/10/12 10:55:30;;;;;;;;;;;;;;;;;;5035198;28;20121;-60
2021/10/12 10:58:11;;;;;;;;;;;;;;;;;;5032425;28;19913;-59
2021/10/12 11:00:42;;;;;;;;;;;;;;;;;;5036759;28;19912;-60
2021/10/12 11:03:09;;;;;;;;;;;;;;;;;;5035731;28;19948;-61
2021/10/12 11:05:44;;;;;;;;;;;;;;;;;;5030543;28;19923;-60
2021/10/12 11:08:12;;;;;;;;;;;;;;;;;;5033852;28;20020;-60
2021/10/12 11:10:37;;;;;;;;;;;;;;;;;;5037509;28;19967;-60
2021/10/12 11:13:03;;;;;;;;;;;;;;;;;;5040731;28;20443;-60
2021/10/12 11:15:28;;;;;;;;;;;;;;;;;;5031632;28;19913;-60
2021/10/12 11:18:07;;;;;;;;;;;;;;;;;;5042369;28;19917;-59
2021/10/12 11:20:40;;;;;;;;;;;;;;;;;;5036846;28;20040;-59
2021/10/12 11:23:05;;;;;;;;;;;;;;;;;;5037524;28;19916;-60
2021/10/12 11:25:31;;;;;;;;;;;;;;;;;;5035599;28;19916;-61
2021/10/12 11:28:05;;;;;;;;;;;;;;;;;;5033135;28;19979;-62
2021/10/12 11:30:32;;;;;;;;;;;;;;;;;;5033450;28;20384;-60
2021/10/12 11:32:57;;;;;;;;;;;;;;;;;;5034667;28;19967;-60
2021/10/12 11:35:31;;;;;;;;;;;;;;;;;;5041428;28;20342;-60
2021/10/12 11:37:57;;;;;;;;;;;;;;;;;;5034507;28;20012;-61
2021/10/12 11:40:25;;;;;;;;;;;;;;;;;;5038639;28;20008;-61
2021/10/12 11:42:59;;;;;;;;;;;;;;;;;;5033149;28;19924;-60
2021/10/12 11:45:24;;;;;;;;;;;;;;;;;;5033248;28;20300;-60
2021/10/12 11:47:50;;;;;;;;;;;;;;;;;;5033942;28;19925;-60
2021/10/12 11:50:16;;;;;;;;;;;;;;;;;;5036527;28;19913;-60
2021/10/12 11:52:45;;;;;;;;;;;;;;;;;;5035505;28;20327;-60
2021/10/12 11:55:11;;;;;;;;;;;;;;;;;;5037706;28;19920;-60
2021/10/12 11:57:37;;;;;;;;;;;;;;;;;;5037841;28;19929;-60
2021/10/12 12:00:03;;;;;;;;;;;;;;;;;;5032474;28;20405;-60
2021/10/12 12:02:29;;;;;;;;;;;;;;;;;;5038554;28;19939;-60
2021/10/12 12:04:58;;;;;;;;;;;;;;;;;;5033203;28;20280;-60
2021/10/12 12:07:25;;;;;;;;;;;;;;;;;;5033325;28;19913;-61
2021/10/12 12:09:51;;;;;;;;;;;;;;;;;;5032114;28;19920;-60
2021/10/12 12:12:18;;;;;;;;;;;;;;;;;;5035977;28;19920;-61
2021/10/12 12:14:43;;;;;;;;;;;;;;;;;;5037534;28;19956;-61
2021/10/12 12:17:10;;;;;;;;;;;;;;;;;;5032284;28;19963;-60
2021/10/12 12:19:43;;;;;;;;;;;;;;;;;;5032584;28;19913;-60
2021/10/12 12:22:13;;;;;;;;;;;;;;;;;;5033949;28;20274;-60
2021/10/12 12:24:38;;;;;;;;;;;;;;;;;;5037878;28;20015;-60
2021/10/12 12:27:04;;;;;;;;;;;;;;;;;;5037190;28;19917;-60
2021/10/12 12:29:29;;;;;;;;;;;;;;;;;;5039065;28;20055;-61
2021/10/12 12:31:56;;;;;;;;;;;;;;;;;;5035876;28;19921;-61
2021/10/12 12:34:34;;;;;;;;;;;;;;;;;;5038913;28;20014;-60
2021/10/12 12:37:04;;;;;;;;;;;;;;;;;;5036700;28;20390;-61
2021/10/12 12:39:37;;;;;;;;;;;;;;;;;;5038886;28;19936;-61
2021/10/12 12:42:06;;;;;;;;;;;;;;;;;;5036068;28;19942;-61
2021/10/12 12:44:31;;;;;;;;;;;;;;;;;;5039319;28;19924;-62
2021/10/12 12:46:59;;;;;;;;;;;;;;;;;;5043498;28;20383;-61
2021/10/12 12:49:24;;;;;;;;;;;;;;;;;;5039500;28;19920;-62
2021/10/12 12:51:50;;;;;;;;;;;;;;;;;;5047052;28;19920;-61
2021/10/12 12:54:31;;;;;;;;;;;;;;;;;;5041206;28;19923;-62
2021/10/12 12:57:26;;;;;;;;;;;;;;;;;;5046185;28;19924;-61
2021/10/12 13:00:03;;;;;;;;;;;;;;;;;;5039036;28;19916;-61
2021/10/12 13:02:28;;;;;;;;;;;;;;;;;;5040022;28;20002;-62
2021/10/12 13:04:54;;;;;;;;;;;;;;;;;;5039372;28;19963;-61
2021/10/12 13:07:19;;;;;;;;;;;;;;;;;;5037655;28;19917;-61
2021/10/12 13:09:51;;;;;;;;;;;;;;;;;;5040145;28;20386;-61
2021/10/12 13:12:17;;;;;;;;;;;;;;;;;;5037895;28;19967;-61
2021/10/12 13:14:49;;;;;;;;;;;;;;;;;;5041598;28;19917;-61
2021/10/12 13:17:19;;;;;;;;;;;;;;;;;;5039594;28;19967;-61
2021/10/12 13:19:45;;;;;;;;;;;;;;;;;;5037038;28;19921;-61
2021/10/12 13:22:10;;;;;;;;;;;;;;;;;;5046832;28;20334;-62
2021/10/12 13:24:36;;;;;;;;;;;;;;;;;;5048069;28;20129;-61
2021/10/12 13:27:01;;;;;;;;;;;;;;;;;;5046298;28;19960;-60
2021/10/12 13:29:26;;;;;;;;;;;;;;;;;;5044954;28;19916;-61
2021/10/12 13:31:53;;;;;;;;;;;;;;;;;;5046366;28;20258;-61
2021/10/12 13:34:18;;;;;;;;;;;;;;;;;;5038629;28;19916;-61
2021/10/12 13:36:43;;;;;;;;;;;;;;;;;;5040048;28;19924;-61
2021/10/12 13:39:09;;;;;;;;;;;;;;;;;;5040717;28;20456;-61
2021/10/12 13:41:34;;;;;;;;;;;;;;;;;;5042458;28;19974;-62
2021/10/12 13:44:03;;;;;;;;;;;;;;;;;;5045318;28;20387;-62
2021/10/12 13:46:28;;;;;;;;;;;;;;;;;;5034289;28;19965;-57
2021/10/12 13:48:54;;;;;;;;;;;;;;;;;;5038963;28;19929;-58
2021/10/12 13:51:19;;;;;;;;;;;;;;;;;;5031140;28;19929;-58
2021/10/12 13:53:44;;;;;;;;;;;;;;;;;;5036260;28;19921;-58
2021/10/12 13:56:10;;;;;;;;;;;;;;;;;;5033329;28;19932;-58
2021/10/12 13:58:35;;;;;;;;;;;;;;;;;;5033615;28;20329;-58
2021/10/12 14:01:00;;;;;;;;;;;;;;;;;;5034738;28;19913;-58
2021/10/12 14:03:26;;;;;;;;;;;;;;;;;;5032946;28;19990;-58
2021/10/12 14:05:53;;;;;;;;;;;;;;;;;;5033967;28;20414;-58
2021/10/12 14:08:18;;;;;;;;;;;;;;;;;;5030979;28;19924;-58
2021/10/12 14:10:44;;;;;;;;;;;;;;;;;;5032180;28;19928;-58
2021/10/12 14:13:09;;;;;;;;;;;;;;;;;;5033903;28;19916;-58
2021/10/12 14:15:35;;;;;;;;;;;;;;;;;;5035145;28;19924;-58
2021/10/12 14:18:00;;;;;;;;;;;;;;;;;;5048871;28;19920;-57
2021/10/12 14:20:26;;;;;;;;;;;;;;;;;;5033880;28;20303;-58
2021/10/12 14:22:53;;;;;;;;;;;;;;;;;;5031498;28;19987;-58
2021/10/12 14:25:19;;;;;;;;;;;;;;;;;;5036571;28;20686;-58
2021/10/12 14:27:44;;;;;;;;;;;;;;;;;;5032116;28;19916;-58
2021/10/12 14:30:10;;;;;;;;;;;;;;;;;;5034710;28;20326;-58
2021/10/12 14:32:35;;;;;;;;;;;;;;;;;;5033285;28;19921;-58
2021/10/12 14:35:00;;;;;;;;;;;;;;;;;;5032022;28;20106;-58
2021/10/12 14:37:28;;;;;;;;;;;;;;;;;;5035496;28;20159;-58
2021/10/12 14:39:53;;;;;;;;;;;;;;;;;;5039381;28;19968;-58
2021/10/12 14:42:19;;;;;;;;;;;;;;;;;;5033450;28;20336;-58
2021/10/12 14:44:44;;;;;;;;;;;;;;;;;;5033556;28;19924;-58
2021/10/12 14:47:10;;;;;;;;;;;;;;;;;;5035341;28;20505;-58
2021/10/12 14:49:35;;;;;;;;;;;;;;;;;;5039097;28;22366;-58
2021/10/12 14:52:01;;;;;;;;;;;;;;;;;;5031605;28;20576;-58
2021/10/12 14:54:26;;;;;;;;;;;;;;;;;;5032366;28;20335;-58
2021/10/12 14:56:52;;;;;;;;;;;;;;;;;;5032410;28;19917;-57
2021/10/12 14:59:17;;;;;;;;;;;;;;;;;;5034746;28;19921;-58
2021/10/12 15:01:42;;;;;;;;;;;;;;;;;;5033594;28;19928;-58
2021/10/12 15:04:08;;;;;;;;;;;;;;;;;;5040650;28;19921;-58
2021/10/12 15:06:33;;;;;;;;;;;;;;;;;;5042535;28;19925;-58
2021/10/12 15:08:59;;;;;;;;;;;;;;;;;;5055846;28;19928;-57
2021/10/12 15:11:27;;;;;;;;;;;;;;;;;;5032946;28;19925;-58
2021/10/12 15:13:52;;;;;;;;;;;;;;;;;;5031764;28;20570;-58
2021/10/12 15:16:18;;;;;;;;;;;;;;;;;;5047181;28;19923;-58
2021/10/12 15:18:43;;;;;;;;;;;;;;;;;;5036667;28;19917;-58
2021/10/12 15:21:08;;;;;;;;;;;;;;;;;;5031867;28;19928;-58
2021/10/12 15:23:34;;;;;;;;;;;;;;;;;;5037875;28;19917;-58
2021/10/12 15:26:00;;;;;;;;;;;;;;;;;;5033969;28;20181;-58
2021/10/12 15:28:25;;;;;;;;;;;;;;;;;;5036741;28;20264;-58
2021/10/12 15:30:50;;;;;;;;;;;;;;;;;;5035850;28;19960;-57
2021/10/12 15:33:16;;;;;;;;;;;;;;;;;;5034834;28;19921;-58
2021/10/12 15:35:41;;;;;;;;;;;;;;;;;;5033155;28;19924;-58
2021/10/12 15:38:07;;;;;;;;;;;;;;;;;;5032847;28;19917;-57
2021/10/12 15:40:32;;;;;;;;;;;;;;;;;;5030640;28;20380;-58
2021/10/12 15:42:59;;;;;;;;;;;;;;;;;;5031251;28;20391;-58
2021/10/12 15:45:24;;;;;;;;;;;;;;;;;;5029806;28;19916;-58
2021/10/12 15:47:49;;;;;;;;;;;;;;;;;;5029675;28;19924;-58
2021/10/12 15:50:15;;;;;;;;;;;;;;;;;;5031877;28;19954;-58
2021/10/12 15:52:41;;;;;;;;;;;;;;;;;;5030792;28;20141;-58
2021/10/12 15:55:07;;;;;;;;;;;;;;;;;;5031892;28;19975;-58
2021/10/12 15:57:33;;;;;;;;;;;;;;;;;;5032807;28;20034;-58
2021/10/12 15:59:58;;;;;;;;;;;;;;;;;;5030612;28;20575;-58
2021/10/12 16:02:24;;;;;;;;;;;;;;;;;;5031267;28;20526;-58
2021/10/12 16:04:50;;;;;;;;;;;;;;;;;;5049578;28;19940;-57
2021/10/12 16:07:15;;;;;;;;;;;;;;;;;;5039092;28;19967;-58
2021/10/12 16:09:41;;;;;;;;;;;;;;;;;;5046186;28;19916;-58
2021/10/12 16:12:06;;;;;;;;;;;;;;;;;;5040363;28;20380;-58
2021/10/12 16:20:24;;;;;;;;;;;;;;;;;;5045524;28;19966;-58
2021/10/12 16:22:50;;;;;;;;;;;;;;;;;;5041063;28;19917;-58
2021/10/12 16:25:15;;;;;;;;;;;;;;;;;;5039931;28;20736;-58
2021/10/12 16:27:40;;;;;;;;;;;;;;;;;;5035846;28;20012;-58
2021/10/12 16:30:06;;;;;;;;;;;;;;;;;;5034339;28;19996;-58
2021/10/12 16:32:31;;;;;;;;;;;;;;;;;;5036251;28;19925;-57
2021/10/12 16:34:56;;;;;;;;;;;;;;;;;;5034965;28;20016;-57
2021/10/12 16:37:22;;;;;;;;;;;;;;;;;;5042157;28;19920;-58
2021/10/12 16:39:49;;;;;;;;;;;;;;;;;;5036777;28;19920;-58
2021/10/12 16:42:15;;;;;;;;;;;;;;;;;;5037043;28;19976;-58
2021/10/12 16:44:41;;;;;;;;;;;;;;;;;;5035416;28;19916;-58
2021/10/12 16:47:07;;;;;;;;;;;;;;;;;;5032922;28;20244;-58
2021/10/12 16:49:33;;;;;;;;;;;;;;;;;;5034105;28;19927;-59
2021/10/12 16:51:59;;;;;;;;;;;;;;;;;;5034452;28;19966;-58
2021/10/12 16:54:25;;;;;;;;;;;;;;;;;;5040168;28;19916;-57